createdAt,value
2022-08-07T00:00:35.844Z,101837.78
2022-08-07T00:02:44.514Z,101820.38
2022-08-07T00:04:46.618Z,101831.84
2022-08-07T00:06:51.620Z,101821.75
2022-08-07T00:08:54.033Z,101821.88
2022-08-07T00:10:58.368Z,101831.13
2022-08-07T00:13:09.895Z,101830.44
2022-08-07T00:15:24.431Z,101831.28
2022-08-07T00:17:38.313Z,101825.06
2022-08-07T00:20:00.938Z,101841.38
2022-08-07T00:22:03.346Z,101845.03
2022-08-07T00:24:05.835Z,101839.56
2022-08-07T00:26:18.484Z,101841.56
2022-08-07T00:28:21.967Z,101837.16
2022-08-07T00:30:27.506Z,101839.03
2022-08-07T00:32:30.334Z,101839.22
2022-08-07T00:34:36.913Z,101837.09
2022-08-07T00:36:42.682Z,101840.44
2022-08-07T00:38:45.343Z,101835.91
2022-08-07T00:40:47.692Z,101842.00
2022-08-07T00:42:50.272Z,101836.81
2022-08-07T00:44:54.545Z,101847.03
2022-08-07T00:46:56.407Z,101840.28
2022-08-07T00:48:58.313Z,101841.50
2022-08-07T00:51:04.489Z,101838.25
2022-08-07T00:53:06.619Z,101843.53
2022-08-07T00:55:12.623Z,101834.25
2022-08-07T00:57:19.923Z,101843.41
2022-08-07T00:59:35.031Z,101839.19
2022-08-07T01:01:41.476Z,101843.53
2022-08-07T01:03:57.276Z,101840.03
2022-08-07T01:06:02.220Z,101846.84
2022-08-07T01:08:04.244Z,101836.56
2022-08-07T01:10:11.002Z,101841.00
2022-08-07T01:12:29.133Z,101840.75
2022-08-07T01:14:32.410Z,101835.16
2022-08-07T01:16:39.325Z,101833.66
2022-08-07T01:18:45.318Z,101836.44
2022-08-07T01:21:22.433Z,101847.31
2022-08-07T01:23:32.691Z,101840.91
2022-08-07T01:25:55.234Z,101842.56
2022-08-07T01:27:58.361Z,101838.59
2022-08-07T01:30:02.838Z,101838.03
2022-08-07T01:32:05.533Z,101844.78
2022-08-07T01:34:14.084Z,101842.06
2022-08-07T01:36:16.907Z,101838.91
2022-08-07T01:38:24.913Z,101847.22
2022-08-07T01:40:29.004Z,101815.91
2022-08-07T01:42:39.887Z,101845.97
2022-08-07T01:44:53.461Z,101851.06
2022-08-07T01:46:55.546Z,101858.75
2022-08-07T01:48:59.941Z,101853.56
2022-08-07T01:52:01.153Z,101850.91
2022-08-07T01:54:09.642Z,101848.72
2022-08-07T01:56:01.485Z,101829.47
2022-08-07T01:58:28.887Z,101847.47
2022-08-07T02:00:32.070Z,101848.22
2022-08-07T02:03:19.034Z,101850.50
2022-08-07T02:05:43.147Z,101842.44
2022-08-07T02:07:51.156Z,101840.16
2022-08-07T02:09:58.734Z,101848.22
2022-08-07T02:12:05.281Z,101848.72
2022-08-07T02:14:09.447Z,101846.38
2022-08-07T02:16:17.581Z,101844.56
2022-08-07T02:18:22.787Z,101856.53
2022-08-07T02:20:30.587Z,101849.88
2022-08-07T02:22:33.182Z,101849.25
2022-08-07T02:24:37.129Z,101846.06
2022-08-07T02:26:40.926Z,101848.94
2022-08-07T02:28:45.792Z,101848.72
2022-08-07T02:30:50.369Z,101841.00
2022-08-07T02:33:08.960Z,101842.28
2022-08-07T02:35:12.182Z,101848.09
2022-08-07T02:37:23.878Z,101852.34
2022-08-07T02:39:43.112Z,101848.38
2022-08-07T02:41:50.737Z,101851.75
2022-08-07T02:44:00.577Z,101851.59
2022-08-07T02:46:05.364Z,101844.81
2022-08-07T02:48:10.033Z,101846.28
2022-08-07T02:50:12.469Z,101853.06
2022-08-07T02:52:21.623Z,101851.38
2022-08-07T02:54:35.825Z,101852.56
2022-08-07T02:56:40.015Z,101854.59
2022-08-07T02:58:47.294Z,101854.97
2022-08-07T03:00:52.371Z,101857.25
2022-08-07T03:02:55.547Z,101853.75
2022-08-07T03:05:00.233Z,101849.28
2022-08-07T03:07:10.647Z,101855.31
2022-08-07T03:09:13.394Z,101858.94
2022-08-07T03:11:17.097Z,101859.19
2022-08-07T03:13:20.191Z,101855.72
2022-08-07T03:15:30.273Z,101863.94
2022-08-07T03:17:52.862Z,101865.16
2022-08-07T03:19:56.568Z,101862.47
2022-08-07T03:21:59.400Z,101861.03
2022-08-07T03:24:18.089Z,101848.25
2022-08-07T03:26:28.215Z,101864.03
2022-08-07T03:28:37.208Z,101858.19
2022-08-07T03:30:41.538Z,101856.38
2022-08-07T03:32:57.049Z,101853.00
2022-08-07T03:35:17.662Z,101860.84
2022-08-07T03:37:27.723Z,101841.28
2022-08-07T03:39:45.903Z,101858.03
2022-08-07T03:41:55.644Z,101859.28
2022-08-07T03:44:03.643Z,101851.78
2022-08-07T03:46:18.231Z,101862.63
2022-08-07T03:48:20.998Z,101871.91
2022-08-07T03:50:25.629Z,101867.66
2022-08-07T03:52:31.600Z,101874.81
2022-08-07T03:54:54.119Z,101875.28
2022-08-07T03:57:01.445Z,101877.34
2022-08-07T03:59:12.741Z,101881.09
2022-08-07T04:01:16.431Z,101877.94
2022-08-07T04:03:18.644Z,101886.84
2022-08-07T04:05:23.972Z,101882.13
2022-08-07T04:07:41.669Z,101887.44
2022-08-07T04:09:50.439Z,101881.50
2022-08-07T04:12:26.431Z,101879.28
2022-08-07T04:14:37.248Z,101885.81
2022-08-07T04:16:37.878Z,101876.94
2022-08-07T04:18:59.524Z,101883.22
2022-08-07T04:21:04.103Z,101881.19
2022-08-07T04:23:09.945Z,101878.13
2022-08-07T04:25:25.401Z,101885.19
2022-08-07T04:27:35.497Z,101893.88
2022-08-07T04:29:58.311Z,101887.97
2022-08-07T04:32:09.773Z,101894.13
2022-08-07T04:34:16.409Z,101885.84
2022-08-07T04:36:22.724Z,101893.97
2022-08-07T04:38:28.123Z,101875.50
2022-08-07T04:40:32.168Z,101885.81
2022-08-07T04:42:34.103Z,101892.88
2022-08-07T04:45:03.071Z,101890.41
2022-08-07T04:47:08.632Z,101885.00
2022-08-07T04:49:24.602Z,101887.16
2022-08-07T04:51:37.851Z,101894.69
2022-08-07T04:54:18.719Z,101895.41
2022-08-07T04:58:12.052Z,101893.94
2022-08-07T05:00:08.071Z,101892.34
2022-08-07T05:01:46.887Z,101895.63
2022-08-07T05:04:06.846Z,101896.53
2022-08-07T05:06:22.442Z,101901.47
2022-08-07T05:09:07.574Z,101899.13
2022-08-07T05:11:19.451Z,101903.19
2022-08-07T05:14:54.374Z,101910.22
2022-08-07T05:15:59.931Z,101899.38
2022-08-07T05:18:12.337Z,101919.16
2022-08-07T05:20:22.661Z,101908.78
2022-08-07T05:22:26.745Z,101915.34
2022-08-07T05:24:40.315Z,101905.91
2022-08-07T05:26:46.336Z,101912.56
2022-08-07T05:28:53.091Z,101916.94
2022-08-07T05:30:56.938Z,101908.34
2022-08-07T05:33:03.388Z,101921.88
2022-08-07T05:35:08.907Z,101913.75
2022-08-07T05:37:10.938Z,101914.34
2022-08-07T05:40:05.491Z,101910.47
2022-08-07T05:42:01.469Z,101913.44
2022-08-07T05:44:12.784Z,101918.75
2022-08-07T05:46:16.920Z,101908.00
2022-08-07T05:48:26.424Z,101916.97
2022-08-07T05:50:30.585Z,101924.59
2022-08-07T05:52:32.922Z,101914.28
2022-08-07T05:54:53.429Z,101916.81
2022-08-07T05:56:58.758Z,101911.47
2022-08-07T05:59:01.990Z,101915.41
2022-08-07T06:01:08.432Z,101915.88
2022-08-07T06:03:14.402Z,101907.31
2022-08-07T06:05:16.576Z,101910.84
2022-08-07T06:07:22.961Z,101914.53
2022-08-07T06:10:05.491Z,101913.03
2022-08-07T06:12:07.611Z,101907.66
2022-08-07T06:14:13.067Z,101914.53
2022-08-07T06:16:23.646Z,101908.84
2022-08-07T06:18:32.478Z,101918.34
2022-08-07T06:20:49.946Z,101916.13
2022-08-07T06:23:04.101Z,101915.06
2022-08-07T06:25:23.364Z,101919.00
2022-08-07T06:28:00.582Z,101919.06
2022-08-07T06:29:47.873Z,101911.25
2022-08-07T06:31:51.607Z,101907.16
2022-08-07T06:33:53.490Z,101912.78
2022-08-07T06:36:12.856Z,101910.44
2022-08-07T06:38:20.408Z,101901.63
2022-08-07T06:40:22.753Z,101878.31
2022-08-07T06:42:36.164Z,101901.28
2022-08-07T06:44:40.911Z,101913.94
2022-08-07T06:46:42.694Z,101910.09
2022-08-07T06:48:44.826Z,101910.38
2022-08-07T06:50:48.634Z,101917.16
2022-08-07T06:52:55.793Z,101926.28
2022-08-07T06:55:32.464Z,101920.09
2022-08-07T06:57:21.861Z,101914.56
2022-08-07T07:00:12.289Z,101924.19
2022-08-07T07:02:08.829Z,101925.09
2022-08-07T07:04:32.505Z,101928.31
2022-08-07T07:06:39.392Z,101930.06
2022-08-07T07:59:55.899Z,101900.81
2022-08-07T08:02:10.365Z,101758.75
2022-08-07T08:04:14.317Z,101889.66
2022-08-07T08:06:16.556Z,101909.56
2022-08-07T08:08:34.862Z,101906.03
2022-08-07T08:10:40.301Z,101814.16
2022-08-07T08:12:52.190Z,101907.06
2022-08-07T08:14:54.992Z,101826.94
2022-08-07T08:17:56.010Z,101799.91
2022-08-07T08:20:17.644Z,101829.53
2022-08-07T08:21:55.400Z,101907.44
2022-08-07T08:24:07.634Z,101906.38
2022-08-07T08:26:29.680Z,101825.38
2022-08-07T08:28:37.849Z,101824.81
2022-08-07T08:30:51.032Z,101787.72
2022-08-07T08:33:10.329Z,101725.75
2022-08-07T08:35:28.462Z,101798.19
2022-08-07T08:38:01.736Z,101829.66
2022-08-07T08:39:58.324Z,101864.69
2022-08-07T08:42:06.720Z,101814.38
2022-08-07T08:44:59.092Z,101910.88
2022-08-07T08:47:31.939Z,101909.03
2022-08-07T08:50:35.425Z,101879.28
2022-08-07T08:53:05.219Z,101915.34
2022-08-07T08:55:55.064Z,101727.50
2022-08-07T08:58:13.313Z,101878.53
2022-08-07T09:00:28.566Z,101899.72
2022-08-07T09:02:40.420Z,101900.72
2022-08-07T09:04:52.329Z,101902.78
2022-08-07T09:07:03.505Z,101858.59
2022-08-07T09:09:30.058Z,101898.22
2022-08-07T09:12:20.111Z,101900.44
2022-08-07T09:14:58.708Z,101896.78
2022-08-07T09:17:59.337Z,101897.03
2022-08-07T09:20:34.772Z,101829.84
2022-08-07T09:24:54.807Z,101891.34
2022-08-07T09:25:17.819Z,101888.09
2022-08-07T09:28:00.515Z,101721.81
2022-08-07T09:30:09.329Z,101776.28
2022-08-07T09:32:39.160Z,101813.69
2022-08-07T09:36:04.168Z,101841.13
2022-08-07T09:37:53.696Z,101844.22
2022-08-07T09:40:05.913Z,101884.97
2022-08-07T09:42:55.926Z,101856.41
2022-08-07T09:47:23.903Z,101857.03
2022-08-07T09:47:58.914Z,101872.50
2022-08-07T09:50:21.374Z,101867.88
2022-08-07T09:52:40.644Z,101864.28
2022-08-07T09:54:57.925Z,101857.06
2022-08-07T09:57:06.053Z,101853.81
2022-08-07T09:59:21.670Z,101752.34
2022-08-07T10:01:51.019Z,101855.22
2022-08-07T10:04:32.613Z,101851.81
2022-08-07T10:07:24.415Z,101731.50
2022-08-07T10:10:11.952Z,101848.09
2022-08-07T10:12:29.344Z,101845.75
2022-08-07T10:15:01.582Z,101851.56
2022-08-07T10:17:23.684Z,101845.41
2022-08-07T10:19:38.663Z,101730.66
2022-08-07T10:22:14.255Z,101849.31
2022-08-07T10:24:38.130Z,101807.50
2022-08-07T10:26:53.333Z,101842.81
2022-08-07T10:29:04.632Z,101846.50
2022-08-07T10:31:24.684Z,101844.19
2022-08-07T10:34:05.556Z,101833.78
2022-08-07T10:36:47.572Z,101767.59
2022-08-07T10:38:52.420Z,101830.31
2022-08-07T10:41:11.977Z,101783.81
2022-08-07T10:43:34.625Z,101773.78
2022-08-07T10:45:57.434Z,101813.63
2022-08-07T10:48:44.021Z,101821.97
2022-08-07T10:51:39.329Z,101824.44
2022-08-07T10:54:11.796Z,101789.94
2022-08-07T10:56:31.151Z,101775.66
2022-08-07T10:59:13.569Z,101796.34
2022-08-07T11:02:05.438Z,101808.81
2022-08-07T11:04:39.933Z,101805.00
2022-08-07T11:07:03.480Z,101808.03
2022-08-07T11:10:09.293Z,101763.38
2022-08-07T11:11:59.329Z,101795.47
2022-08-07T11:14:56.786Z,101768.03
2022-08-07T11:16:54.789Z,101796.09
2022-08-07T11:19:10.013Z,101797.16
2022-08-07T11:21:24.746Z,101727.38
2022-08-07T11:24:13.417Z,101748.59
2022-08-07T11:26:49.968Z,101772.25
2022-08-07T11:29:01.740Z,101666.44
2022-08-07T11:31:59.629Z,101786.16
2022-08-07T11:34:10.149Z,101695.22
2022-08-07T11:36:34.761Z,101781.84
2022-08-07T11:38:58.195Z,101782.63
2022-08-07T11:41:18.223Z,101782.03
2022-08-07T11:43:54.705Z,101775.47
2022-08-07T11:46:10.700Z,101771.63
2022-08-07T11:48:35.358Z,101665.94
2022-08-07T11:50:58.465Z,101767.25
2022-08-07T11:53:37.699Z,101767.06
2022-08-07T11:56:13.953Z,101764.66
2022-08-07T11:58:53.335Z,101765.50
2022-08-07T12:01:19.985Z,101768.25
2022-08-07T12:03:46.881Z,101686.44
2022-08-07T12:06:37.379Z,101771.22
2022-08-07T12:08:48.584Z,101729.59
2022-08-07T12:11:20.449Z,101770.19
2022-08-07T12:13:44.912Z,101670.38
2022-08-07T12:16:07.075Z,101677.56
2022-08-07T12:18:30.733Z,101770.84
2022-08-07T12:20:42.556Z,101768.75
2022-08-07T12:22:58.789Z,101739.19
2022-08-07T12:25:09.118Z,101762.00
2022-08-07T12:28:04.050Z,101597.84
2022-08-07T12:30:09.184Z,101725.34
2022-08-07T12:32:51.032Z,101752.97
2022-08-07T12:34:56.333Z,101749.84
2022-08-07T12:37:00.658Z,101660.16
2022-08-07T12:39:41.155Z,101739.44
2022-08-07T12:41:49.426Z,101657.72
2022-08-07T12:44:04.259Z,101664.84
2022-08-07T12:46:32.791Z,101676.56
2022-08-07T12:48:55.282Z,101723.44
2022-08-07T12:51:17.705Z,101685.91
2022-08-07T12:54:03.090Z,101741.38
2022-08-07T12:56:26.646Z,101733.63
2022-08-07T12:58:35.403Z,101629.41
2022-08-07T13:01:07.788Z,101736.59
2022-08-07T13:03:27.558Z,101720.69
2022-08-07T13:06:04.652Z,101712.72
2022-08-07T13:08:53.000Z,101725.22
2022-08-07T13:11:25.765Z,101686.22
2022-08-07T13:14:02.245Z,101706.00
2022-08-07T13:16:28.769Z,101706.56
2022-08-07T13:18:53.967Z,101716.81
2022-08-07T13:21:05.389Z,101705.09
2022-08-07T13:24:00.822Z,101706.53
2022-08-07T13:25:45.884Z,101700.75
2022-08-07T13:28:11.559Z,101688.66
2022-08-07T13:30:18.903Z,101689.25
2022-08-07T13:34:30.500Z,101711.13
2022-08-07T13:36:05.380Z,101690.72
2022-08-07T13:38:25.964Z,101708.22
2022-08-07T13:40:42.452Z,101690.13
2022-08-07T13:42:48.817Z,101691.75
2022-08-07T13:45:11.778Z,101586.38
2022-08-07T13:47:15.947Z,101662.81
2022-08-07T13:50:32.541Z,101690.34
2022-08-07T13:52:05.483Z,101669.88
2022-08-07T13:54:30.283Z,101673.03
2022-08-07T13:56:41.355Z,101667.63
2022-08-07T13:58:57.023Z,101610.34
2022-08-07T14:01:08.845Z,101684.47
2022-08-07T14:03:13.815Z,101676.16
2022-08-07T14:05:21.620Z,101665.13
2022-08-07T14:07:31.215Z,101676.97
2022-08-07T14:10:01.933Z,101657.81
2022-08-07T14:12:07.432Z,101678.22
2022-08-07T14:14:15.650Z,101628.25
2022-08-07T14:16:17.954Z,101643.66
2022-08-07T14:18:32.691Z,101607.19
2022-08-07T14:20:42.384Z,101645.09
2022-08-07T14:22:52.649Z,101660.50
2022-08-07T14:25:00.550Z,101659.47
2022-08-07T14:28:11.417Z,101639.06
2022-08-07T14:30:07.714Z,101656.44
2022-08-07T14:32:01.660Z,101581.84
2022-08-07T14:34:07.264Z,101605.59
2022-08-07T14:36:10.582Z,101627.41
2022-08-07T14:40:49.511Z,101644.38
2022-08-07T14:43:57.455Z,101620.72
2022-08-07T14:47:59.141Z,101619.22
2022-08-07T14:50:06.962Z,101504.44
2022-08-07T14:52:13.716Z,101641.13
2022-08-07T14:54:33.047Z,101594.41
2022-08-07T14:56:42.073Z,101599.50
2022-08-07T14:58:53.949Z,101594.09
2022-08-07T15:00:59.200Z,101629.69
2022-08-07T15:05:30.394Z,101544.09
2022-08-07T15:10:01.987Z,101631.63
2022-08-07T15:12:26.165Z,101533.25
2022-08-07T15:14:33.914Z,101586.25
2022-08-07T15:17:11.601Z,101609.47
2022-08-07T15:19:19.056Z,101626.34
2022-08-07T15:22:04.351Z,101626.97
2022-08-07T15:26:47.941Z,101598.63
2022-08-07T15:28:59.500Z,101521.03
2022-08-07T15:33:46.166Z,101560.75
2022-08-07T15:36:01.455Z,101611.69
2022-08-07T15:38:17.678Z,101578.19
2022-08-07T15:40:35.072Z,101569.47
2022-08-07T15:42:47.623Z,101598.44
2022-08-07T15:44:52.454Z,101572.13
2022-08-07T15:46:58.540Z,101577.78
2022-08-07T15:49:15.195Z,101604.13
2022-08-07T15:51:19.617Z,101552.03
2022-08-07T15:53:51.864Z,101591.59
2022-08-07T15:56:02.308Z,101593.41
2022-08-07T15:58:07.253Z,101533.31
2022-08-07T16:00:31.132Z,101572.16
2022-08-07T16:02:47.287Z,101595.44
2022-08-07T16:04:58.089Z,101591.66
2022-08-07T16:07:04.763Z,101599.25
2022-08-07T16:09:22.378Z,101463.47
2022-08-07T16:11:43.287Z,101568.78
2022-08-07T16:13:58.785Z,101545.72
2022-08-07T16:16:48.291Z,101499.66
2022-08-07T16:18:54.576Z,101587.28
2022-08-07T16:21:56.884Z,101586.19
2022-08-07T16:24:03.207Z,101398.03
2022-08-07T16:26:30.665Z,101420.09
2022-08-07T16:30:06.066Z,101424.56
2022-08-07T16:31:51.259Z,101445.63
2022-08-07T16:34:10.512Z,101572.72
2022-08-07T16:36:34.219Z,101584.28
2022-08-07T16:39:02.063Z,101574.47
2022-08-07T16:41:16.837Z,101534.44
2022-08-07T16:44:06.280Z,101566.78
2022-08-07T16:47:04.465Z,101585.09
2022-08-07T16:50:20.314Z,101570.19
2022-08-07T16:52:49.183Z,101576.81
2022-08-07T16:54:54.978Z,101552.59
2022-08-07T16:58:01.997Z,101575.69
2022-08-07T17:00:14.842Z,101435.69
2022-08-07T17:02:53.223Z,101573.84
2022-08-07T17:06:01.547Z,101567.56
2022-08-07T17:07:58.246Z,101383.50
2022-08-07T17:10:30.225Z,101512.06
2022-08-07T17:12:47.458Z,101451.50
2022-08-07T17:15:01.880Z,101510.84
2022-08-07T17:17:15.969Z,101474.19
2022-08-07T17:20:02.332Z,101437.59
2022-08-07T17:22:10.654Z,101413.44
2022-08-07T17:24:48.142Z,101585.75
2022-08-07T17:26:58.621Z,101610.53
2022-08-07T17:29:04.794Z,101592.00
2022-08-07T17:31:25.838Z,101414.41
2022-08-07T17:34:08.748Z,101502.03
2022-08-07T17:36:03.053Z,101579.47
2022-08-07T17:38:33.178Z,101409.09
2022-08-07T17:40:50.629Z,101484.84
2022-08-07T17:43:14.946Z,101500.63
2022-08-07T17:45:29.658Z,101420.47
2022-08-07T17:47:42.459Z,101594.75
2022-08-07T17:50:00.469Z,101415.91
2022-08-07T17:52:39.577Z,101591.34
2022-08-07T17:54:54.084Z,101419.06
2022-08-07T17:57:18.724Z,101489.38
2022-08-07T17:59:35.899Z,101435.50
2022-08-07T18:01:58.105Z,101586.19
2022-08-07T18:04:39.598Z,101599.78
2022-08-07T18:07:20.586Z,101498.25
2022-08-07T18:10:05.276Z,101576.53
2022-08-07T18:12:28.557Z,101609.28
2022-08-07T18:14:54.915Z,101607.69
2022-08-07T18:17:06.390Z,101613.41
2022-08-07T18:21:04.455Z,101618.63
2022-08-07T18:22:02.389Z,101594.69
2022-08-07T18:24:33.922Z,101618.56
2022-08-07T18:26:40.576Z,101620.09
2022-08-07T18:28:57.667Z,101619.72
2022-08-07T18:31:07.504Z,101614.44
2022-08-07T18:33:54.918Z,101624.25
2022-08-07T18:36:16.457Z,101614.38
2022-08-07T18:38:55.357Z,101627.91
2022-08-07T18:40:59.305Z,101625.25
2022-08-07T18:43:42.584Z,101627.69
2022-08-07T18:46:25.839Z,101629.03
2022-08-07T18:50:19.617Z,101635.84
2022-08-07T18:52:34.720Z,101638.97
2022-08-07T18:54:27.828Z,101638.50
2022-08-07T18:56:58.297Z,101551.22
2022-08-07T18:59:47.704Z,101643.81
2022-08-07T19:02:19.428Z,101641.84
2022-08-07T19:04:58.060Z,101616.13
2022-08-07T19:07:35.210Z,101518.50
2022-08-07T19:09:59.298Z,101654.69
2022-08-07T19:12:20.921Z,101642.97
2022-08-07T19:14:52.442Z,101618.50
2022-08-07T19:17:06.630Z,101555.88
2022-08-07T19:19:31.731Z,101548.69
2022-08-07T19:21:56.955Z,101642.66
2022-08-07T19:24:30.669Z,101591.72
2022-08-07T19:27:01.994Z,101602.97
2022-08-07T19:31:04.153Z,101641.97
2022-08-07T19:32:08.172Z,101598.03
2022-08-07T19:34:01.503Z,101577.25
2022-08-07T19:36:08.917Z,101599.38
2022-08-07T19:38:17.228Z,101553.41
2022-08-07T19:40:31.266Z,101610.84
2022-08-07T19:42:43.132Z,101654.13
2022-08-07T19:44:50.147Z,101658.31
2022-08-07T19:46:58.043Z,101629.13
2022-08-07T19:49:06.051Z,101643.22
2022-08-07T19:51:19.149Z,101597.25
2022-08-07T19:54:34.443Z,101620.75
2022-08-07T19:55:57.297Z,101606.09
2022-08-07T19:58:13.144Z,101593.66
2022-08-07T20:00:29.197Z,101541.19
2022-08-07T20:02:39.179Z,101663.25
2022-08-07T20:04:48.954Z,101595.69
2022-08-07T20:06:54.210Z,101649.97
2022-08-07T20:08:59.444Z,101616.44
2022-08-07T20:11:10.118Z,101511.94
2022-08-07T20:13:22.986Z,101668.75
2022-08-07T20:15:27.879Z,101668.06
2022-08-07T20:17:38.667Z,101604.06
2022-08-07T20:19:48.042Z,101641.81
2022-08-07T20:22:00.234Z,101667.78
2022-08-07T20:24:05.988Z,101607.84
2022-08-07T20:26:10.288Z,101548.78
2022-08-07T20:28:14.889Z,101679.34
2022-08-07T20:30:21.748Z,101639.75
2022-08-07T20:32:40.349Z,101558.09
2022-08-07T20:34:51.198Z,101566.81
2022-08-07T20:36:58.665Z,101686.69
2022-08-07T20:39:17.853Z,101583.06
2022-08-07T20:41:34.162Z,101651.75
2022-08-07T20:43:47.829Z,101488.34
2022-08-07T20:46:28.849Z,101563.03
2022-08-07T20:48:30.267Z,101653.03
2022-08-07T20:50:33.669Z,101629.31
2022-08-07T20:52:52.432Z,101477.91
2022-08-07T20:54:56.287Z,101628.84
2022-08-07T20:57:08.368Z,101553.56
2022-08-07T21:00:04.879Z,101525.13
2022-08-07T21:01:45.947Z,101483.72
2022-08-07T21:04:22.960Z,101571.19
2022-08-07T21:06:28.204Z,101642.50
2022-08-07T21:08:42.540Z,101689.91
2022-08-07T21:10:46.189Z,101661.91
2022-08-07T21:12:49.935Z,101664.97
2022-08-07T21:14:56.159Z,101679.34
2022-08-07T21:18:00.590Z,101495.22
2022-08-07T21:19:32.035Z,101672.31
2022-08-07T21:21:57.510Z,101495.22
2022-08-07T21:24:25.575Z,101578.94
2022-08-07T21:26:50.583Z,101632.44
2022-08-07T21:28:58.232Z,101495.41
2022-08-07T21:31:14.291Z,101560.16
2022-08-07T21:33:41.283Z,101592.94
2022-08-07T21:36:05.376Z,101688.50
2022-08-07T21:38:27.889Z,101598.50
2022-08-07T21:40:41.781Z,101638.72
2022-08-07T21:42:52.959Z,101691.38
2022-08-07T21:45:24.372Z,101696.44
2022-08-07T21:47:38.142Z,101617.03
2022-08-07T21:50:07.138Z,101667.75
2022-08-07T21:52:36.757Z,101697.03
2022-08-07T21:54:53.193Z,101542.84
2022-08-07T21:57:31.229Z,101690.88
2022-08-07T22:00:09.601Z,101689.84
2022-08-07T22:02:42.269Z,101698.88
2022-08-07T22:04:53.791Z,101517.81
2022-08-07T22:07:35.755Z,101568.50
2022-08-07T22:09:55.031Z,101677.69
2022-08-07T22:12:27.380Z,101623.28
2022-08-07T22:15:00.127Z,101595.41
2022-08-07T22:17:04.253Z,101479.44
2022-08-07T22:19:12.271Z,101697.28
2022-08-07T22:21:20.423Z,101628.50
2022-08-07T22:23:40.203Z,101697.84
2022-08-07T22:25:57.019Z,101502.28
2022-08-07T22:28:32.156Z,101660.47
2022-08-07T22:31:07.391Z,101476.09
2022-08-07T22:33:15.030Z,101551.69
2022-08-07T22:35:17.988Z,101490.09
2022-08-07T22:38:04.665Z,101695.91
2022-08-07T22:40:15.206Z,101647.84
2022-08-07T22:42:29.512Z,101471.63
2022-08-07T22:44:35.678Z,101548.34
2022-08-07T22:47:03.604Z,101689.19
2022-08-07T22:49:33.847Z,101692.81
2022-08-07T22:52:00.523Z,101689.00
2022-08-07T22:54:31.540Z,101689.59
2022-08-07T22:57:04.086Z,101506.75
2022-08-07T22:59:15.638Z,101690.44
2022-08-07T23:01:59.191Z,101699.44
2022-08-07T23:04:57.050Z,101696.75
2022-08-07T23:07:31.915Z,101685.00
2022-08-07T23:10:06.048Z,101534.78
2022-08-07T23:12:34.275Z,101693.81
2022-08-07T23:15:03.497Z,101502.81
2022-08-07T23:17:33.198Z,101628.66
2022-08-07T23:20:05.839Z,101696.09
2022-08-07T23:22:26.634Z,101698.47
2022-08-07T23:24:34.307Z,101600.19
2022-08-07T23:27:13.338Z,101559.69
2022-08-07T23:29:43.184Z,101607.44
2022-08-07T23:34:22.055Z,101625.69
2022-08-07T23:35:12.350Z,101615.00
2022-08-07T23:37:19.271Z,101703.38
2022-08-07T23:39:43.387Z,101601.81
2022-08-07T23:42:08.871Z,101585.31
2022-08-07T23:44:42.266Z,101460.19
2022-08-07T23:47:18.253Z,101701.50
2022-08-07T23:49:50.978Z,101686.09
2022-08-07T23:52:59.747Z,101484.25
2022-08-07T23:54:58.349Z,101522.50
2022-08-07T23:57:03.708Z,101697.31
